Sheridan, WY

11:52 PM MDT on September 18, 2014 (GMT -0600)
South Big Horn County | Change Station
CLOSE
Current Station
Airport
Location: Greybull,
Elevation: 3934 ft
Nearby Weather Stations

Elev 3934 ft 44.52 °N, 108.08 °W | Updated 59 minutes ago

Rain
Rain
64 °F
Feels Like 64 °F
N
7
Wind Variable Wind from NNE

Today
High -- | Low -- °F
--% Chance of Precip.
Yesterday
High -- | Low -- °F
Precip. -- in
6:50 AM 7:12 PM
Waning Crescent, 21% visible
Pressure 29.77 in
Visibility 10.0 miles
Clouds Few 4300 ft
Scattered Clouds 7000 ft
Overcast 9500 ft
Dew Point 57 °F
Humidity 78%
Rainfall 0.04 in
Snow Depth 0 in , 0 in , 2 in
UV 0 out of 12
Pollen 6.00 out of 12
Air Quality Not available.
Flu Activity Not available.
METAR KGEY 190453Z AUTO 02006KT 10SM -RA FEW043 SCT070 OVC095 18/14 A2986 RMK AO2 PK WND 29029/0414 LTG DSNT S RAB13 SLP080 P0003 T01780139

More Conditions Fewer Conditions

Pressure 29.77 in
Visibility 10.0 miles
Clouds Few 4300 ft
Scattered Clouds 7000 ft
Overcast 9500 ft
Dew Point 57 °F
Humidity 78%
Rainfall 0.04 in
Snow Depth 0 in , 0 in , 2 in
UV 0 out of 12
Pollen 6.00 out of 12
Air Quality Not available.
Flu Activity Not available.
METAR KGEY 190453Z AUTO 02006KT 10SM -RA FEW043 SCT070 OVC095 18/14 A2986 RMK AO2 PK WND 29029/0414 LTG DSNT S RAB13 SLP080 P0003 T01780139

More Conditions Fewer Conditions

10-Day Weather Forecast

Almanac

Astronomy

Sep. 18, 2014 Rise Set
Actual Time 6:50 AM MDT 7:12 PM MDT
Civil Twilight 6:20 AM MDT 7:42 PM MDT
Nautical Twilight 5:46 AM MDT 8:16 PM MDT
Astronomical Twilight 5:10 AM MDT 8:51 PM MDT
Moon 1:34 AM MDT (9/18) 4:14 PM MDT (9/18)
Length of Visible Light 13h 21m
Length of Day
12h 22m
Tomorrow will be 3m 5s shorter.
Waning Crescent, 21% of the Moon is Illuminated
Sep 19
Waning Crescent
Sep 24
New
Oct 1
First Quarter
Oct 8
Full
Oct 15
Last Quarter

Yesterday's Extremes

State Highs State Lows

Community

WunderPhotos

Upload Photos

1,754,573 photos uploaded!

Nearby

Snow Depth

Station Depth Elevation
Phillips Bench 0 in 8200 ft
Gros Ventre Summit 0 in 8750 ft
Willow Creek 2 in 8450 ft
Blind Bull Summit 1 in 8900 ft
Loomis Park 0 in 8240 ft

Earthquake Activity

City Distance Mag. Time & Date
No recent earthquake activity has been reported nearby.
Minimum magnitude displayed is 2.5.

Coastal Water Temperatures

Place Temperature
No Stations Reporting

Nearby Weather Stations